Enter the Airport ICAO Code

Search by Airport or City

Current Weather

MMSP | Ponciano Arriaga International Airport

San Luis Potosí City, San Luis Potosí, Mexico

Last Update 45 Minutes Ago

Clear Sky

Temperature of 14 ºC

Light Winds from SouthWest

Temperature

14 ºC

Dew Point Temperature

03 ºC Below Zero

Relative Humidity

30.74 %

Wind Direction

SouthWest (210º, Without Significant Variations)

Wind Velocity

6 km/h (03 kt)

Gusts

None

Visibility

Reduced to 8 Miles

Sea Level Pressure

30.16 inHg (Inches of Mercury)

Layers of Clouds

None

METAR MMSP 160646Z 21003KT 8SM SKC 14/M03 A3016 RMK ISOL SC

Weather Forecast

MMSP | Ponciano Arriaga International Airport

San Luis Potosí City, San Luis Potosí, Mexico

Forecast valid for the next 28 Hours

From now on it is expected:

Clear Sky

Light Winds from SouthWest

In 10 hours it is expected the begining of:

Partly Cloudy Sky

Light to Moderate Winds from West

In 21 to 23 hours it is expected the begining of:

Light Winds from NorthEast

Maximum Temperature

26 ºC in 13 Hours

Minimum Temperature

05 ºC in 4 Hours

TAF MMSP 160424Z 1606/1712 24004KT P6SM SKC TX26/1621Z TN05/1612Z FM161800 27008KT P6SM SCT240 BECMG 1705/1707 03004KT